Aeroporto :
LOGIN :

Iscrizione | Disclaimer

   EN    FR    IT 

 










Sommario :    VFR   VFR Marginale   IFR   IFR Intensivo   IFR Molto Intensivo
Visibilità : 
Base nubi : 
>= 8 km
>= 3000ft
5 / 8 km
1000 / 3000 ft
1500m / 5 km
500 / 1000 ft
800 / 1500m
200 / 500 ft
< 800m
< 200 ft
Simboli :   Temporali  Nebbia  Neve Forte  Precipitazioni Forti  Vento > 20 kt
SIGMETs :   Varie  Temporali  Ghiacco  Turbolenza  Onda orograficha  Ceneri Vulcaniche







- Altitudine del aeroporto : 388 ft
- Codice IATA : QYR
- Carte del aeroporto


LFQB - Troyes Barberey

ULTIMO METAR :
  • 170300Z AUTO 15003KT 5000 BR NSC M01/M02 Q1023

METARs OBSOLETI :
  • 170230Z AUTO 14003KT 7000 NSC 01/M01 Q1023
  • 170200Z AUTO 13004KT 7000 NSC 02/00 Q1023
  • 170130Z AUTO 17005KT CAVOK 01/M00 Q1023
  • 170100Z AUTO 16004KT CAVOK 02/00 Q1024
  • 170030Z AUTO 16005KT CAVOK 02/00 Q1024

TAF N/A
Nessun NOTAM noto per questo aeroporto.



MetMap, La meteo Aeronautica in un colpo d'occhio ! - Copyright ORBIFLY Dicembre 2007 - Disclaimer

ORBIFLY MET'MAP TEAM :

Programmazione e sviluppo : Alexandra Zaïnal
Concezione e sviluppo : Baudouin d'Aumeries
Co-Programmazione e sviluppo : Marc-Olivier Méhu
Supporto tecnico e logistico : Manuel Goepfert
Aiuto per la traduzione : Arnaldo La Scala

Contatto : metmap@orbifly.com




FONTI E CREDITI :

   NOAA